Pagrindinis puslapis
METAR-TAF:

METAR-TAF

Oro uostai :

Lyndonville, Vermontas, Jungtinės Amerikos Valstijos

platuma: 44-34-09N, ilguma: 072-01-05W, Aukštis: 362 m

Dabartinis oras

Ataskaita buvo paskelbta 18 minutes, ne 05:55 UTC
Vėjas 9 kt iš Pietų su gūsio iki 15 kt
Temperatūra -6°C
Drėgmė 86%
Slėgis 997 hPa
Matomumas: 4.0 km
Su prošvaistėmis ne aukštis 1100 ft
Su prošvaistėmis ne aukštis 1800 ft
Apsiniaukę ne aukštis 2300 ft
sniegas

METAR: KCDA 280555Z AUTO 18009G15KT 2 1/2SM -SN BKN011 BKN018 OVC023 M06/M08 A2943 RMK AO2 T10621077 11040 21062

Laikas: 01:13 (06:13 UTC)


TAF: trūkstamas

Orai ataskaitas ir orų prognozės (METAR, TAF).

turimą stotys yra geltonos ir raudonos taškus žemėlapyje.

Perkelti pele per norėdami pamatyti stoties vardą.

Tada spustelėkite, norėdami matyti oro stebėjimo ir prognozės.

Norėdami pakeisti žemėlapį: spustelėkite ant žalios mygtukų su juodo kryžiaus žemyn,; žalią mygtuką su brūkšneliu, jei norite nutolinti; arba žalių rodyklių gretimoms žemėlapius.


METAR-TAF: